sensor_id;sensor_type;location;lat;lon;timestamp;pressure;altitude;pressure_sealevel;temperature;humidity
51986;BME280;38002;53.296;6.600;2024-02-21T00:01:38;102118.75;;;9.34;100.00
51986;BME280;38002;53.296;6.600;2024-02-21T00:06:39;102106.31;;;9.32;100.00
51986;BME280;38002;53.296;6.600;2024-02-21T00:11:39;102097.53;;;9.28;100.00
51986;BME280;38002;53.296;6.600;2024-02-21T00:16:40;102069.16;;;9.21;100.00
51986;BME280;38002;53.296;6.600;2024-02-21T00:21:40;102068.06;;;9.13;100.00
51986;BME280;38002;53.296;6.600;2024-02-21T00:26:41;102061.41;;;9.05;100.00
51986;BME280;38002;53.296;6.600;2024-02-21T00:31:41;102061.03;;;8.99;100.00
51986;BME280;38002;53.296;6.600;2024-02-21T00:36:41;102060.28;;;8.97;100.00
51986;BME280;38002;53.296;6.600;2024-02-21T00:41:42;102050.69;;;8.93;100.00
51986;BME280;38002;53.296;6.600;2024-02-21T00:46:42;102039.19;;;8.89;100.00
51986;BME280;38002;53.296;6.600;2024-02-21T00:51:43;102031.41;;;8.85;100.00
51986;BME280;38002;53.296;6.600;2024-02-21T00:56:43;102027.00;;;8.84;100.00
51986;BME280;38002;53.296;6.600;2024-02-21T01:01:44;102039.53;;;8.85;100.00
51986;BME280;38002;53.296;6.600;2024-02-21T01:06:44;102033.41;;;8.83;100.00
51986;BME280;38002;53.296;6.600;2024-02-21T01:11:45;102040.66;;;8.82;100.00
51986;BME280;38002;53.296;6.600;2024-02-21T01:16:45;102034.50;;;8.80;100.00
51986;BME280;38002;53.296;6.600;2024-02-21T01:21:45;102019.09;;;8.81;100.00
51986;BME280;38002;53.296;6.600;2024-02-21T01:26:46;102023.78;;;8.79;100.00
51986;BME280;38002;53.296;6.600;2024-02-21T01:31:47;102024.75;;;8.78;100.00
51986;BME280;38002;53.296;6.600;2024-02-21T01:36:47;102013.31;;;8.74;100.00
51986;BME280;38002;53.296;6.600;2024-02-21T01:41:48;102014.38;;;8.72;100.00
51986;BME280;38002;53.296;6.600;2024-02-21T01:46:48;102019.19;;;8.68;100.00
51986;BME280;38002;53.296;6.600;2024-02-21T01:51:49;102013.06;;;8.66;100.00
51986;BME280;38002;53.296;6.600;2024-02-21T01:56:50;101999.72;;;8.63;100.00
51986;BME280;38002;53.296;6.600;2024-02-21T02:01:51;102010.56;;;8.63;100.00
51986;BME280;38002;53.296;6.600;2024-02-21T02:06:54;102003.28;;;8.63;100.00
51986;BME280;38002;53.296;6.600;2024-02-21T02:11:55;101985.44;;;8.61;100.00
51986;BME280;38002;53.296;6.600;2024-02-21T02:16:55;102004.31;;;8.62;100.00
51986;BME280;38002;53.296;6.600;2024-02-21T02:22:01;101992.44;;;8.63;100.00
51986;BME280;38002;53.296;6.600;2024-02-21T02:27:03;102002.41;;;8.63;100.00
51986;BME280;38002;53.296;6.600;2024-02-21T02:32:04;101994.28;;;8.63;100.00
51986;BME280;38002;53.296;6.600;2024-02-21T02:37:04;101979.75;;;8.64;100.00
51986;BME280;38002;53.296;6.600;2024-02-21T02:42:05;101976.06;;;8.65;100.00
51986;BME280;38002;53.296;6.600;2024-02-21T02:47:05;101968.91;;;8.64;100.00
51986;BME280;38002;53.296;6.600;2024-02-21T02:52:06;101948.09;;;8.64;100.00
51986;BME280;38002;53.296;6.600;2024-02-21T02:57:06;101942.66;;;8.64;100.00
51986;BME280;38002;53.296;6.600;2024-02-21T03:02:07;101947.13;;;8.65;100.00
51986;BME280;38002;53.296;6.600;2024-02-21T03:07:07;101944.50;;;8.64;100.00
51986;BME280;38002;53.296;6.600;2024-02-21T03:12:08;101942.91;;;8.61;100.00
51986;BME280;38002;53.296;6.600;2024-02-21T03:17:09;101941.94;;;8.62;100.00
51986;BME280;38002;53.296;6.600;2024-02-21T03:22:09;101938.38;;;8.62;100.00
51986;BME280;38002;53.296;6.600;2024-02-21T03:27:10;101938.22;;;8.63;100.00
51986;BME280;38002;53.296;6.600;2024-02-21T03:32:10;101947.38;;;8.62;100.00
51986;BME280;38002;53.296;6.600;2024-02-21T03:37:11;101949.22;;;8.62;100.00
51986;BME280;38002;53.296;6.600;2024-02-21T03:42:12;101955.59;;;8.61;100.00
51986;BME280;38002;53.296;6.600;2024-02-21T03:47:12;101941.19;;;8.60;100.00
51986;BME280;38002;53.296;6.600;2024-02-21T03:52:12;101942.91;;;8.61;100.00
51986;BME280;38002;53.296;6.600;2024-02-21T03:57:13;101935.75;;;8.60;100.00
51986;BME280;38002;53.296;6.600;2024-02-21T04:02:13;101921.34;;;8.60;100.00
51986;BME280;38002;53.296;6.600;2024-02-21T04:07:14;101914.94;;;8.61;100.00
51986;BME280;38002;53.296;6.600;2024-02-21T04:12:15;101923.06;;;8.61;100.00
51986;BME280;38002;53.296;6.600;2024-02-21T04:17:15;101931.31;;;8.59;100.00
51986;BME280;38002;53.296;6.600;2024-02-21T04:22:16;101924.06;;;8.60;100.00
51986;BME280;38002;53.296;6.600;2024-02-21T04:27:16;101925.03;;;8.59;100.00
51986;BME280;38002;53.296;6.600;2024-02-21T04:32:16;101929.47;;;8.60;100.00
51986;BME280;38002;53.296;6.600;2024-02-21T04:37:17;101924.91;;;8.60;100.00
51986;BME280;38002;53.296;6.600;2024-02-21T04:42:17;101927.53;;;8.62;100.00
51986;BME280;38002;53.296;6.600;2024-02-21T04:47:18;101925.69;;;8.62;100.00
51986;BME280;38002;53.296;6.600;2024-02-21T04:52:19;101902.97;;;8.63;100.00
51986;BME280;38002;53.296;6.600;2024-02-21T04:57:20;101902.97;;;8.63;100.00
51986;BME280;38002;53.296;6.600;2024-02-21T05:02:20;101896.69;;;8.63;100.00
51986;BME280;38002;53.296;6.600;2024-02-21T05:07:22;101878.72;;;8.62;100.00
51986;BME280;38002;53.296;6.600;2024-02-21T05:12:23;101877.72;;;8.63;100.00
51986;BME280;38002;53.296;6.600;2024-02-21T05:17:23;101870.59;;;8.62;100.00
51986;BME280;38002;53.296;6.600;2024-02-21T05:22:24;101878.72;;;8.62;100.00
51986;BME280;38002;53.296;6.600;2024-02-21T05:27:24;101862.44;;;8.62;100.00
51986;BME280;38002;53.296;6.600;2024-02-21T05:32:25;101878.84;;;8.60;100.00
51986;BME280;38002;53.296;6.600;2024-02-21T05:37:26;101877.97;;;8.60;100.00
51986;BME280;38002;53.296;6.600;2024-02-21T05:42:27;101870.97;;;8.57;100.00
51986;BME280;38002;53.296;6.600;2024-02-21T05:47:27;101864.78;;;8.55;100.00
51986;BME280;38002;53.296;6.600;2024-02-21T05:52:27;101856.53;;;8.57;100.00
51986;BME280;38002;53.296;6.600;2024-02-21T05:57:28;101850.38;;;8.55;100.00
51986;BME280;38002;53.296;6.600;2024-02-21T06:02:28;101840.38;;;8.55;100.00
51986;BME280;38002;53.296;6.600;2024-02-21T06:07:29;101837.81;;;8.54;100.00
51986;BME280;38002;53.296;6.600;2024-02-21T06:12:29;101835.22;;;8.52;100.00
51986;BME280;38002;53.296;6.600;2024-02-21T06:17:30;101841.78;;;8.50;100.00
51986;BME280;38002;53.296;6.600;2024-02-21T06:22:30;101832.63;;;8.51;100.00
51986;BME280;38002;53.296;6.600;2024-02-21T06:27:31;101823.78;;;8.49;100.00
51986;BME280;38002;53.296;6.600;2024-02-21T06:32:31;101823.63;;;8.50;100.00
51986;BME280;38002;53.296;6.600;2024-02-21T06:37:32;101814.53;;;8.51;100.00
51986;BME280;38002;53.296;6.600;2024-02-21T06:42:32;101827.09;;;8.52;100.00
51986;BME280;38002;53.296;6.600;2024-02-21T06:47:32;101827.22;;;8.51;100.00
51986;BME280;38002;53.296;6.600;2024-02-21T06:52:33;101831.66;;;8.52;100.00
51986;BME280;38002;53.296;6.600;2024-02-21T06:57:33;101811.22;;;8.48;100.00
51986;BME280;38002;53.296;6.600;2024-02-21T07:02:34;101811.09;;;8.49;100.00
51986;BME280;38002;53.296;6.600;2024-02-21T07:07:34;101810.22;;;8.49;100.00
51986;BME280;38002;53.296;6.600;2024-02-21T07:12:35;101818.34;;;8.49;100.00
51986;BME280;38002;53.296;6.600;2024-02-21T07:17:37;101809.25;;;8.50;100.00
51986;BME280;38002;53.296;6.600;2024-02-21T07:22:37;101814.66;;;8.50;100.00
51986;BME280;38002;53.296;6.600;2024-02-21T07:27:38;101802.97;;;8.49;100.00
51986;BME280;38002;53.296;6.600;2024-02-21T07:32:38;101794.69;;;8.51;100.00
51986;BME280;38002;53.296;6.600;2024-02-21T07:37:39;101796.53;;;8.50;100.00
51986;BME280;38002;53.296;6.600;2024-02-21T07:42:40;101792.84;;;8.51;100.00
51986;BME280;38002;53.296;6.600;2024-02-21T07:47:40;101783.59;;;8.54;100.00
51986;BME280;38002;53.296;6.600;2024-02-21T07:52:41;101764.75;;;8.52;100.00
51986;BME280;38002;53.296;6.600;2024-02-21T07:57:41;101770.78;;;8.56;100.00
51986;BME280;38002;53.296;6.600;2024-02-21T08:02:42;101757.09;;;8.57;100.00
51986;BME280;38002;53.296;6.600;2024-02-21T08:07:44;101757.69;;;8.61;100.00
51986;BME280;38002;53.296;6.600;2024-02-21T08:12:44;101753.16;;;8.61;100.00
51986;BME280;38002;53.296;6.600;2024-02-21T08:17:45;101754.72;;;8.64;100.00
51986;BME280;38002;53.296;6.600;2024-02-21T08:22:45;101758.31;;;8.64;100.00
51986;BME280;38002;53.296;6.600;2024-02-21T08:27:45;101745.88;;;8.62;100.00
51986;BME280;38002;53.296;6.600;2024-02-21T08:32:46;101733.91;;;8.64;100.00
51986;BME280;38002;53.296;6.600;2024-02-21T08:37:46;101734.66;;;8.67;100.00
51986;BME280;38002;53.296;6.600;2024-02-21T08:42:48;101726.38;;;8.68;100.00
51986;BME280;38002;53.296;6.600;2024-02-21T08:47:49;101706.41;;;8.69;100.00
51986;BME280;38002;53.296;6.600;2024-02-21T08:52:50;101715.41;;;8.70;100.00
51986;BME280;38002;53.296;6.600;2024-02-21T08:57:50;101700.97;;;8.69;100.00
51986;BME280;38002;53.296;6.600;2024-02-21T09:02:51;101698.88;;;8.73;100.00
51986;BME280;38002;53.296;6.600;2024-02-21T09:07:51;101678.78;;;8.75;100.00
51986;BME280;38002;53.296;6.600;2024-02-21T09:12:52;101665.22;;;8.75;100.00
51986;BME280;38002;53.296;6.600;2024-02-21T09:17:52;101667.94;;;8.75;100.00
51986;BME280;38002;53.296;6.600;2024-02-21T09:22:53;101670.50;;;8.77;100.00
51986;BME280;38002;53.296;6.600;2024-02-21T09:27:54;101672.34;;;8.76;100.00
51986;BME280;38002;53.296;6.600;2024-02-21T09:32:55;101668.66;;;8.77;100.00
51986;BME280;38002;53.296;6.600;2024-02-21T09:37:58;101663.22;;;8.77;100.00
51986;BME280;38002;53.296;6.600;2024-02-21T09:43:03;101663.69;;;8.82;100.00
51986;BME280;38002;53.296;6.600;2024-02-21T09:48:30;101661.47;;;8.87;100.00
51986;BME280;38002;53.296;6.600;2024-02-21T09:53:37;101652.06;;;8.91;100.00
51986;BME280;38002;53.296;6.600;2024-02-21T09:58:39;101640.06;;;8.94;100.00
51986;BME280;38002;53.296;6.600;2024-02-21T10:03:39;101625.53;;;8.95;100.00
51986;BME280;38002;53.296;6.600;2024-02-21T10:08:40;101629.22;;;8.94;100.00
51986;BME280;38002;53.296;6.600;2024-02-21T10:13:40;101613.09;;;8.92;100.00
51986;BME280;38002;53.296;6.600;2024-02-21T10:18:41;101603.13;;;8.93;100.00
51986;BME280;38002;53.296;6.600;2024-02-21T10:28:47;101583.59;;;8.99;100.00
51986;BME280;38002;53.296;6.600;2024-02-21T10:33:56;101571.63;;;9.01;100.00
51986;BME280;38002;53.296;6.600;2024-02-21T10:38:57;101565.19;;;9.02;100.00
51986;BME280;38002;53.296;6.600;2024-02-21T10:43:59;101552.47;;;9.03;100.00
51986;BME280;38002;53.296;6.600;2024-02-21T10:49:10;101551.09;;;9.08;100.00
51986;BME280;38002;53.296;6.600;2024-02-21T10:59:32;101537.25;;;9.11;100.00
51986;BME280;38002;53.296;6.600;2024-02-21T11:04:34;101531.69;;;9.13;100.00
51986;BME280;38002;53.296;6.600;2024-02-21T11:09:36;101510.28;;;9.20;100.00
51986;BME280;38002;53.296;6.600;2024-02-21T11:14:38;101505.47;;;9.33;100.00
51986;BME280;38002;53.296;6.600;2024-02-21T11:19:39;101499.66;;;9.47;100.00
51986;BME280;38002;53.296;6.600;2024-02-21T11:24:40;101506.53;;;9.51;100.00
51986;BME280;38002;53.296;6.600;2024-02-21T11:29:48;101481.81;;;9.54;100.00
51986;BME280;38002;53.296;6.600;2024-02-21T11:35:02;101464.53;;;9.65;100.00
51986;BME280;38002;53.296;6.600;2024-02-21T11:40:04;101467.53;;;9.71;100.00
51986;BME280;38002;53.296;6.600;2024-02-21T11:45:07;101455.84;;;9.71;100.00
51986;BME280;38002;53.296;6.600;2024-02-21T11:50:11;101438.09;;;9.67;100.00
51986;BME280;38002;53.296;6.600;2024-02-21T11:55:11;101409.38;;;9.64;100.00
51986;BME280;38002;53.296;6.600;2024-02-21T12:00:13;101402.38;;;9.62;100.00
51986;BME280;38002;53.296;6.600;2024-02-21T12:05:15;101380.06;;;9.58;100.00
51986;BME280;38002;53.296;6.600;2024-02-21T12:10:16;101376.50;;;9.57;100.00
51986;BME280;38002;53.296;6.600;2024-02-21T12:15:18;101341.22;;;9.57;100.00
51986;BME280;38002;53.296;6.600;2024-02-21T12:20:20;101332.22;;;9.57;100.00
51986;BME280;38002;53.296;6.600;2024-02-21T12:25:21;101327.91;;;9.54;100.00
51986;BME280;38002;53.296;6.600;2024-02-21T12:30:26;101317.78;;;9.56;100.00
51986;BME280;38002;53.296;6.600;2024-02-21T12:35:28;101315.19;;;9.55;100.00
51986;BME280;38002;53.296;6.600;2024-02-21T12:40:28;101285.34;;;9.55;100.00
51986;BME280;38002;53.296;6.600;2024-02-21T12:45:32;101263.63;;;9.55;100.00
51986;BME280;38002;53.296;6.600;2024-02-21T12:50:34;101272.50;;;9.57;100.00
51986;BME280;38002;53.296;6.600;2024-02-21T12:55:35;101264.34;;;9.57;100.00
51986;BME280;38002;53.296;6.600;2024-02-21T13:00:35;101242.31;;;9.60;100.00
51986;BME280;38002;53.296;6.600;2024-02-21T13:05:36;101232.88;;;9.64;100.00
51986;BME280;38002;53.296;6.600;2024-02-21T13:10:37;101227.44;;;9.64;100.00
51986;BME280;38002;53.296;6.600;2024-02-21T13:15:38;101209.16;;;9.66;100.00
51986;BME280;38002;53.296;6.600;2024-02-21T13:20:43;101183.69;;;9.67;100.00
51986;BME280;38002;53.296;6.600;2024-02-21T13:25:43;101159.69;;;9.72;100.00
51986;BME280;38002;53.296;6.600;2024-02-21T13:30:47;101146.06;;;9.82;100.00
51986;BME280;38002;53.296;6.600;2024-02-21T13:35:47;101121.31;;;9.85;100.00
51986;BME280;38002;53.296;6.600;2024-02-21T13:40:48;101090.84;;;9.91;100.00
51986;BME280;38002;53.296;6.600;2024-02-21T13:45:56;101065.53;;;9.90;100.00
51986;BME280;38002;53.296;6.600;2024-02-21T13:50:58;101050.94;;;9.91;100.00
51986;BME280;38002;53.296;6.600;2024-02-21T13:55:59;101040.22;;;9.90;100.00
51986;BME280;38002;53.296;6.600;2024-02-21T14:00:59;101031.53;;;9.86;100.00
51986;BME280;38002;53.296;6.600;2024-02-21T14:06:00;101035.56;;;9.82;100.00
51986;BME280;38002;53.296;6.600;2024-02-21T14:11:01;101028.03;;;9.76;100.00
51986;BME280;38002;53.296;6.600;2024-02-21T14:16:02;101005.75;;;9.73;100.00
51986;BME280;38002;53.296;6.600;2024-02-21T14:21:02;100986.22;;;9.69;100.00
51986;BME280;38002;53.296;6.600;2024-02-21T14:26:06;100976.81;;;9.64;100.00
51986;BME280;38002;53.296;6.600;2024-02-21T14:31:07;100959.66;;;9.63;100.00
51986;BME280;38002;53.296;6.600;2024-02-21T14:36:09;100937.41;;;9.60;100.00
51986;BME280;38002;53.296;6.600;2024-02-21T14:41:11;100931.28;;;9.57;100.00
51986;BME280;38002;53.296;6.600;2024-02-21T14:46:14;100922.03;;;9.50;100.00
51986;BME280;38002;53.296;6.600;2024-02-21T14:51:15;100919.50;;;9.49;100.00
51986;BME280;38002;53.296;6.600;2024-02-21T14:56:16;100905.53;;;9.44;100.00
51986;BME280;38002;53.296;6.600;2024-02-21T15:01:17;100901.22;;;9.41;100.00
51986;BME280;38002;53.296;6.600;2024-02-21T15:06:18;100895.59;;;9.35;100.00
51986;BME280;38002;53.296;6.600;2024-02-21T15:11:18;100890.16;;;9.35;100.00
51986;BME280;38002;53.296;6.600;2024-02-21T15:16:19;100891.47;;;9.31;100.00
51986;BME280;38002;53.296;6.600;2024-02-21T15:21:19;100884.66;;;9.27;100.00
51986;BME280;38002;53.296;6.600;2024-02-21T15:26:20;100869.50;;;9.24;100.00
51986;BME280;38002;53.296;6.600;2024-02-21T15:31:24;100851.38;;;9.25;100.00
51986;BME280;38002;53.296;6.600;2024-02-21T15:36:24;100838.97;;;9.22;100.00
51986;BME280;38002;53.296;6.600;2024-02-21T15:41:25;100824.56;;;9.22;100.00
51986;BME280;38002;53.296;6.600;2024-02-21T15:46:26;100802.00;;;9.21;100.00
51986;BME280;38002;53.296;6.600;2024-02-21T15:51:26;100770.63;;;9.19;100.00
51986;BME280;38002;53.296;6.600;2024-02-21T15:56:27;100752.94;;;9.15;100.00
51986;BME280;38002;53.296;6.600;2024-02-21T16:01:27;100743.78;;;9.16;100.00
51986;BME280;38002;53.296;6.600;2024-02-21T16:06:28;100735.25;;;9.10;100.00
51986;BME280;38002;53.296;6.600;2024-02-21T16:11:28;100711.63;;;9.03;100.00
51986;BME280;38002;53.296;6.600;2024-02-21T16:16:29;100693.63;;;9.02;100.00
51986;BME280;38002;53.296;6.600;2024-02-21T16:21:30;100677.16;;;8.95;100.00
51986;BME280;38002;53.296;6.600;2024-02-21T16:26:34;100658.78;;;8.89;100.00
51986;BME280;38002;53.296;6.600;2024-02-21T16:31:35;100645.69;;;8.85;100.00
51986;BME280;38002;53.296;6.600;2024-02-21T16:36:38;100620.09;;;8.79;100.00
51986;BME280;38002;53.296;6.600;2024-02-21T16:41:39;100615.28;;;8.73;100.00
51986;BME280;38002;53.296;6.600;2024-02-21T16:46:39;100597.63;;;8.69;100.00
51986;BME280;38002;53.296;6.600;2024-02-21T16:51:39;100582.69;;;8.65;100.00
51986;BME280;38002;53.296;6.600;2024-02-21T16:56:40;100565.03;;;8.61;100.00
51986;BME280;38002;53.296;6.600;2024-02-21T17:01:40;100555.38;;;8.58;100.00
51986;BME280;38002;53.296;6.600;2024-02-21T17:06:41;100544.81;;;8.55;100.00
51986;BME280;38002;53.296;6.600;2024-02-21T17:11:42;100530.59;;;8.53;100.00
51986;BME280;38002;53.296;6.600;2024-02-21T17:16:42;100518.38;;;8.49;100.00
51986;BME280;38002;53.296;6.600;2024-02-21T17:21:43;100517.81;;;8.46;100.00
51986;BME280;38002;53.296;6.600;2024-02-21T17:26:43;100511.84;;;8.42;100.00
51986;BME280;38002;53.296;6.600;2024-02-21T17:31:44;100501.19;;;8.41;100.00
51986;BME280;38002;53.296;6.600;2024-02-21T17:36:44;100505.22;;;8.37;100.00
51986;BME280;38002;53.296;6.600;2024-02-21T17:41:46;100507.75;;;8.38;100.00
51986;BME280;38002;53.296;6.600;2024-02-21T17:46:46;100489.13;;;8.35;100.00
51986;BME280;38002;53.296;6.600;2024-02-21T17:51:47;100477.44;;;8.35;100.00
51986;BME280;38002;53.296;6.600;2024-02-21T17:56:47;100486.56;;;8.34;100.00
51986;BME280;38002;53.296;6.600;2024-02-21T18:01:48;100466.06;;;8.31;100.00
51986;BME280;38002;53.296;6.600;2024-02-21T18:06:48;100458.09;;;8.30;100.00
51986;BME280;38002;53.296;6.600;2024-02-21T18:11:49;100443.84;;;8.28;100.00
51986;BME280;38002;53.296;6.600;2024-02-21T18:16:49;100436.84;;;8.25;100.00
51986;BME280;38002;53.296;6.600;2024-02-21T18:21:50;100424.16;;;8.26;100.00
51986;BME280;38002;53.296;6.600;2024-02-21T18:26:51;100415.38;;;8.24;100.00
51986;BME280;38002;53.296;6.600;2024-02-21T18:31:51;100397.41;;;8.23;100.00
51986;BME280;38002;53.296;6.600;2024-02-21T18:36:52;100380.31;;;8.22;100.00
51986;BME280;38002;53.296;6.600;2024-02-21T18:41:52;100382.31;;;8.20;100.00
51986;BME280;38002;53.296;6.600;2024-02-21T18:46:53;100354.69;;;8.16;100.00
51986;BME280;38002;53.296;6.600;2024-02-21T18:51:53;100363.00;;;8.15;100.00
51986;BME280;38002;53.296;6.600;2024-02-21T18:56:54;100350.13;;;8.17;100.00
51986;BME280;38002;53.296;6.600;2024-02-21T19:01:54;100343.84;;;8.16;100.00
51986;BME280;38002;53.296;6.600;2024-02-21T19:06:55;100330.16;;;8.18;100.00
51986;BME280;38002;53.296;6.600;2024-02-21T19:11:56;100313.91;;;8.18;100.00
51986;BME280;38002;53.296;6.600;2024-02-21T19:16:56;100311.88;;;8.20;100.00
51986;BME280;38002;53.296;6.600;2024-02-21T19:21:57;100281.09;;;8.21;100.00
51986;BME280;38002;53.296;6.600;2024-02-21T19:26:57;100284.66;;;8.21;100.00
51986;BME280;38002;53.296;6.600;2024-02-21T19:31:58;100280.94;;;8.23;100.00
51986;BME280;38002;53.296;6.600;2024-02-21T19:36:58;100275.53;;;8.23;100.00
51986;BME280;38002;53.296;6.600;2024-02-21T19:41:59;100266.56;;;8.22;100.00
51986;BME280;38002;53.296;6.600;2024-02-21T19:46:59;100246.75;;;8.21;100.00
51986;BME280;38002;53.296;6.600;2024-02-21T19:51:59;100231.50;;;8.20;100.00
51986;BME280;38002;53.296;6.600;2024-02-21T19:57:00;100236.25;;;8.18;100.00
51986;BME280;38002;53.296;6.600;2024-02-21T20:02:00;100203.03;;;8.16;100.00
51986;BME280;38002;53.296;6.600;2024-02-21T20:07:01;100196.47;;;8.19;100.00
51986;BME280;38002;53.296;6.600;2024-02-21T20:12:01;100192.06;;;8.18;100.00
51986;BME280;38002;53.296;6.600;2024-02-21T20:17:04;100169.19;;;8.12;100.00
51986;BME280;38002;53.296;6.600;2024-02-21T20:22:04;100166.13;;;8.15;100.00
51986;BME280;38002;53.296;6.600;2024-02-21T20:27:05;100151.59;;;8.16;100.00
51986;BME280;38002;53.296;6.600;2024-02-21T20:32:06;100146.16;;;8.16;100.00
51986;BME280;38002;53.296;6.600;2024-02-21T20:37:06;100126.38;;;8.16;100.00
51986;BME280;38002;53.296;6.600;2024-02-21T20:42:11;100129.78;;;8.18;100.00
51986;BME280;38002;53.296;6.600;2024-02-21T20:47:11;100125.22;;;8.18;100.00
51986;BME280;38002;53.296;6.600;2024-02-21T20:52:12;100108.97;;;8.18;100.00
51986;BME280;38002;53.296;6.600;2024-02-21T20:57:12;100104.38;;;8.19;100.00
51986;BME280;38002;53.296;6.600;2024-02-21T21:02:12;100105.25;;;8.19;100.00
51986;BME280;38002;53.296;6.600;2024-02-21T21:07:13;100089.00;;;8.19;100.00
51986;BME280;38002;53.296;6.600;2024-02-21T21:12:13;100067.50;;;8.18;100.00
51986;BME280;38002;53.296;6.600;2024-02-21T21:17:14;100071.91;;;8.19;100.00
51986;BME280;38002;53.296;6.600;2024-02-21T21:22:14;100061.06;;;8.19;100.00
51986;BME280;38002;53.296;6.600;2024-02-21T21:27:14;100061.91;;;8.19;100.00
51986;BME280;38002;53.296;6.600;2024-02-21T21:32:17;100040.25;;;8.19;100.00
51986;BME280;38002;53.296;6.600;2024-02-21T21:37:17;100050.91;;;8.21;100.00
51986;BME280;38002;53.296;6.600;2024-02-21T21:42:18;100051.59;;;8.23;100.00
51986;BME280;38002;53.296;6.600;2024-02-21T21:47:18;100044.31;;;8.24;100.00
51986;BME280;38002;53.296;6.600;2024-02-21T21:52:19;100036.19;;;8.24;100.00
51986;BME280;38002;53.296;6.600;2024-02-21T21:57:19;100013.50;;;8.25;100.00
51986;BME280;38002;53.296;6.600;2024-02-21T22:02:20;99998.28;;;8.24;100.00
51986;BME280;38002;53.296;6.600;2024-02-21T22:07:25;99989.81;;;8.27;100.00
51986;BME280;38002;53.296;6.600;2024-02-21T22:12:25;99972.53;;;8.28;100.00
51986;BME280;38002;53.296;6.600;2024-02-21T22:17:26;99970.84;;;8.27;100.00
51986;BME280;38002;53.296;6.600;2024-02-21T22:22:26;99960.56;;;8.30;100.00
51986;BME280;38002;53.296;6.600;2024-02-21T22:27:27;99950.56;;;8.31;100.00
51986;BME280;38002;53.296;6.600;2024-02-21T22:32:28;99949.56;;;8.32;100.00
51986;BME280;38002;53.296;6.600;2024-02-21T22:37:29;99947.69;;;8.32;100.00
51986;BME280;38002;53.296;6.600;2024-02-21T22:42:29;99946.66;;;8.33;100.00
51986;BME280;38002;53.296;6.600;2024-02-21T22:47:30;99932.94;;;8.35;100.00
51986;BME280;38002;53.296;6.600;2024-02-21T22:52:30;99933.66;;;8.37;100.00
51986;BME280;38002;53.296;6.600;2024-02-21T22:57:31;99934.47;;;8.37;100.00
51986;BME280;38002;53.296;6.600;2024-02-21T23:02:31;99927.19;;;8.38;100.00
51986;BME280;38002;53.296;6.600;2024-02-21T23:07:32;99917.03;;;8.40;100.00
51986;BME280;38002;53.296;6.600;2024-02-21T23:12:32;99907.91;;;8.41;100.00
51986;BME280;38002;53.296;6.600;2024-02-21T23:17:35;99910.41;;;8.42;100.00
51986;BME280;38002;53.296;6.600;2024-02-21T23:22:35;99896.72;;;8.44;100.00
51986;BME280;38002;53.296;6.600;2024-02-21T23:27:36;99901.13;;;8.45;100.00
51986;BME280;38002;53.296;6.600;2024-02-21T23:32:40;99898.56;;;8.43;100.00
51986;BME280;38002;53.296;6.600;2024-02-21T23:37:40;99898.75;;;8.50;100.00
51986;BME280;38002;53.296;6.600;2024-02-21T23:42:41;99886.88;;;8.51;100.00
51986;BME280;38002;53.296;6.600;2024-02-21T23:47:42;99887.38;;;8.54;100.00
51986;BME280;38002;53.296;6.600;2024-02-21T23:52:42;99885.19;;;8.58;100.00
51986;BME280;38002;53.296;6.600;2024-02-21T23:57:43;99884.13;;;8.59;100.00
